createdAt,value
2023-05-15T00:00:01.151Z,82.00
2023-05-15T00:10:01.166Z,79.10
2023-05-15T00:20:01.251Z,101.20
2023-05-15T00:30:01.134Z,104.60
2023-05-15T00:40:01.182Z,81.00
2023-05-15T00:50:01.177Z,88.70
2023-05-15T01:10:01.146Z,112.80
2023-05-15T01:20:00.598Z,90.10
2023-05-15T01:30:01.196Z,83.20
2023-05-15T01:40:01.132Z,94.30
2023-05-15T01:50:01.104Z,86.30
2023-05-15T02:00:01.197Z,78.70
2023-05-15T02:10:01.194Z,80.70
2023-05-15T02:20:01.249Z,76.50
2023-05-15T02:30:01.194Z,84.40
2023-05-15T02:40:01.134Z,74.10
2023-05-15T02:50:01.181Z,85.20
2023-05-15T03:00:01.302Z,93.50
2023-05-15T03:10:01.196Z,67.90
2023-05-15T03:30:01.144Z,91.40
2023-05-15T03:40:01.176Z,80.80
2023-05-15T03:50:01.137Z,85.90
2023-05-15T04:00:01.220Z,94.70
2023-05-15T04:10:01.163Z,91.00
2023-05-15T04:20:01.191Z,80.20
2023-05-15T04:30:01.138Z,91.30
2023-05-15T04:40:01.185Z,68.00
2023-05-15T04:50:01.113Z,74.10
2023-05-15T05:00:01.185Z,87.10
2023-05-15T05:10:01.137Z,81.70
2023-05-15T05:20:01.143Z,98.20
2023-05-15T05:30:01.170Z,88.60
2023-05-15T05:40:01.216Z,85.70
2023-05-15T05:50:01.189Z,87.50
2023-05-15T06:00:01.242Z,108.50
2023-05-15T06:10:01.155Z,96.60
2023-05-15T06:20:01.196Z,76.50
2023-05-15T06:30:01.136Z,105.00
2023-05-15T06:40:01.202Z,104.50
2023-05-15T06:50:01.151Z,99.40
2023-05-15T07:00:02.501Z,138.50
2023-05-15T07:10:01.174Z,109.80
2023-05-15T07:20:01.410Z,107.30
2023-05-15T07:30:01.199Z,137.90
2023-05-15T07:40:01.275Z,211.40
2023-05-15T07:50:01.147Z,340.70
2023-05-15T08:00:01.284Z,405.20
2023-05-15T08:10:01.175Z,464.50
2023-05-15T08:30:01.199Z,524.50
2023-05-15T08:40:01.175Z,557.90
2023-05-15T08:50:01.178Z,595.20
2023-05-15T09:00:01.232Z,630.00
2023-05-15T09:10:01.126Z,592.70
2023-05-15T09:20:01.197Z,591.00
2023-05-15T09:30:01.161Z,552.20
2023-05-15T09:40:01.259Z,588.00
2023-05-15T09:50:01.150Z,616.10
2023-05-15T10:00:01.185Z,646.20
2023-05-15T10:10:01.152Z,648.10
2023-05-15T10:20:01.205Z,697.60
2023-05-15T10:30:01.195Z,688.50
2023-05-15T10:40:01.174Z,679.70
2023-05-15T10:50:01.125Z,692.50
2023-05-15T11:10:01.178Z,673.00
2023-05-15T11:20:01.264Z,638.80
2023-05-15T11:30:01.171Z,670.20
2023-05-15T11:40:01.194Z,656.00
2023-05-15T11:50:01.147Z,693.90
2023-05-15T12:00:01.168Z,704.30
2023-05-15T12:10:01.191Z,701.90
2023-05-15T12:20:01.238Z,678.40
2023-05-15T12:30:01.158Z,697.90
2023-05-15T12:50:01.191Z,728.50
2023-05-15T13:00:01.188Z,695.60
2023-05-15T13:10:01.181Z,711.20
2023-05-15T13:20:01.139Z,724.00
2023-05-15T13:30:01.120Z,737.50
2023-05-15T13:40:01.145Z,767.80
2023-05-15T13:50:01.119Z,792.00
2023-05-15T14:00:01.244Z,757.50
2023-05-15T14:10:01.204Z,726.80
2023-05-15T14:20:00.501Z,709.90
2023-05-15T14:30:01.211Z,693.60
2023-05-15T14:40:01.184Z,672.30
2023-05-15T14:50:01.159Z,691.10
2023-05-15T15:00:01.157Z,691.70
2023-05-15T15:10:01.157Z,681.80
2023-05-15T15:20:01.197Z,716.90
2023-05-15T15:30:01.205Z,746.20
2023-05-15T15:40:01.166Z,699.30
2023-05-15T15:50:01.203Z,714.00
2023-05-15T16:00:01.177Z,718.70
2023-05-15T16:10:11.281Z,717.60
2023-05-15T16:20:01.220Z,679.50
2023-05-15T16:30:00.699Z,660.30
2023-05-15T16:40:01.193Z,600.10
2023-05-15T16:50:01.124Z,554.50
2023-05-15T17:00:01.160Z,525.00
2023-05-15T17:10:01.215Z,481.50
2023-05-15T17:20:02.939Z,452.00
2023-05-15T17:30:01.195Z,442.30
2023-05-15T17:40:01.207Z,428.70
2023-05-15T17:50:01.193Z,409.10
2023-05-15T18:00:00.497Z,378.90
2023-05-15T18:10:01.133Z,346.10
2023-05-15T18:20:01.187Z,333.70
2023-05-15T18:30:01.153Z,338.10
2023-05-15T18:40:01.195Z,291.00
2023-05-15T18:50:01.254Z,238.30
2023-05-15T19:00:01.179Z,225.40
2023-05-15T19:10:01.212Z,218.40
2023-05-15T19:20:01.159Z,212.40
2023-05-15T19:30:01.139Z,204.70
2023-05-15T19:40:01.317Z,226.10
2023-05-15T19:50:01.449Z,129.40
2023-05-15T20:00:01.245Z,147.40
2023-05-15T20:10:01.235Z,145.80
2023-05-15T20:20:01.152Z,132.30
2023-05-15T20:30:01.197Z,142.90
2023-05-15T20:40:01.264Z,170.60
2023-05-15T20:50:01.191Z,138.70
2023-05-15T21:00:01.152Z,172.50
2023-05-15T21:20:01.121Z,180.80
2023-05-15T21:30:01.226Z,175.70
2023-05-15T21:40:01.236Z,207.10
2023-05-15T21:50:01.137Z,146.70
2023-05-15T22:00:01.252Z,135.10
2023-05-15T22:10:01.187Z,133.10
2023-05-15T22:20:01.147Z,124.20
2023-05-15T22:30:01.143Z,145.10
2023-05-15T22:40:01.131Z,117.60
2023-05-15T22:50:01.440Z,94.40
2023-05-15T23:00:01.219Z,98.40
2023-05-15T23:10:01.142Z,86.50
2023-05-15T23:20:01.174Z,91.10
2023-05-15T23:30:01.329Z,100.90
2023-05-15T23:40:01.179Z,122.80
2023-05-15T23:50:01.269Z,106.80
